Time;durP1;ratioP1;P1;durP2;ratioP2;P2;SDS_P1;SDS_P2;PMS_P1;PMS_P2;Temp;Humidity;BMP_temperature;BMP_pressure;BME280_temperature;BME280_humidity;BME280_pressure;Samples;Min_cycle;Max_cycle;Signal;HPM_P1;HPM_P2
2023/01/31 00:02:13;;;;;;;25.33;10.82;;;;;;;4.24;100.00;101956.50;5081763;28;20032;-71
2023/01/31 00:04:39;;;;;;;18.02;9.43;;;;;;;4.21;100.00;101962.44;5077626;28;20038;-71
2023/01/31 00:07:04;;;;;;;24.85;9.63;;;;;;;4.20;100.00;101959.88;5077944;28;20016;-71
2023/01/31 00:09:30;;;;;;;21.65;9.40;;;;;;;4.17;100.00;101966.66;5095333;28;20031;-71
2023/01/31 00:11:55;;;;;;;26.20;10.13;;;;;;;4.15;100.00;101959.69;5094311;28;20028;-71
2023/01/31 00:14:21;;;;;;;22.10;9.63;;;;;;;4.13;100.00;101961.84;5077399;28;20473;-71
2023/01/31 00:16:47;;;;;;;25.45;9.55;;;;;;;4.11;100.00;101962.03;5085469;28;20524;-71
2023/01/31 00:19:12;;;;;;;24.90;9.85;;;;;;;4.10;100.00;101965.00;5068983;28;20036;-71
2023/01/31 00:21:42;;;;;;;22.90;9.73;;;;;;;4.07;100.00;101957.16;5080231;28;20039;-71
2023/01/31 00:24:08;;;;;;;23.73;8.85;;;;;;;4.04;100.00;101952.97;5077871;28;20488;-71
2023/01/31 00:26:33;;;;;;;19.90;9.38;;;;;;;4.03;100.00;101954.84;5109366;28;20055;-71
2023/01/31 00:29:00;;;;;;;21.73;8.82;;;;;;;4.01;100.00;101951.50;5094004;28;20380;-71
2023/01/31 00:31:27;;;;;;;22.40;9.13;;;;;;;4.01;100.00;101950.63;5101136;28;20027;-71
2023/01/31 00:33:53;;;;;;;25.35;8.25;;;;;;;3.97;100.00;101954.88;5068256;28;20075;-71
2023/01/31 00:36:20;;;;;;;24.15;8.43;;;;;;;3.97;100.00;101961.22;5082771;28;20023;-71
2023/01/31 00:38:52;;;;;;;20.83;8.13;;;;;;;3.95;100.00;101951.50;5060311;28;20549;-71
2023/01/31 00:41:21;;;;;;;;;;;;;;;3.95;100.00;101946.00;5078376;28;20427;-71
2023/01/31 00:43:47;;;;;;;18.55;7.90;;;;;;;3.93;100.00;101948.97;5057427;28;19912;-71
2023/01/31 00:46:13;;;;;;;18.80;7.65;;;;;;;3.91;100.00;101953.00;5023857;28;20092;-71
2023/01/31 00:48:38;;;;;;;18.02;7.57;;;;;;;3.91;100.00;101955.75;5060131;28;20028;-71
2023/01/31 00:51:04;;;;;;;22.13;8.63;;;;;;;3.90;100.00;101952.16;5069867;28;20060;-71
2023/01/31 00:53:30;;;;;;;23.45;8.27;;;;;;;3.89;100.00;101952.34;5069318;28;20028;-71
2023/01/31 00:56:02;;;;;;;17.65;7.63;;;;;;;3.90;100.00;101943.91;5044359;28;20032;-71
2023/01/31 00:58:27;;;;;;;18.30;7.80;;;;;;;3.89;100.00;101946.88;5074081;28;20032;-71
2023/01/31 01:00:53;;;;;;;18.55;8.07;;;;;;;3.88;100.00;101939.69;5060748;28;20327;-71
2023/01/31 01:03:18;;;;;;;17.95;6.85;;;;;;;3.88;100.00;101934.19;5078847;28;20028;-71
2023/01/31 01:05:44;;;;;;;19.83;7.53;;;;;;;3.86;100.00;101936.31;5070119;28;20610;-71
2023/01/31 01:08:09;;;;;;;20.77;7.57;;;;;;;3.87;100.00;101924.22;5075131;28;20021;-71
2023/01/31 01:10:35;;;;;;;21.35;7.18;;;;;;;3.88;100.00;101928.69;5080777;28;20032;-71
2023/01/31 01:13:00;;;;;;;19.30;7.28;;;;;;;3.87;100.00;101916.00;5065490;28;20500;-71
2023/01/31 01:15:26;;;;;;;18.77;7.35;;;;;;;3.87;100.00;101926.97;5069299;28;20028;-71
2023/01/31 01:17:51;;;;;;;20.55;7.35;;;;;;;3.88;100.00;101928.69;5017622;28;20087;-71
2023/01/31 01:20:17;;;;;;;15.88;6.97;;;;;;;3.86;100.00;101923.41;5063986;28;20077;-71
2023/01/31 01:22:42;;;;;;;18.15;7.80;;;;;;;3.85;100.00;101918.97;5064196;28;20229;-71
2023/01/31 01:25:08;;;;;;;17.30;7.47;;;;;;;3.86;100.00;101914.31;5054786;28;20496;-71
2023/01/31 01:27:34;;;;;;;21.00;7.47;;;;;;;3.87;100.00;101921.50;5090730;28;20039;-71
2023/01/31 01:30:00;;;;;;;17.75;7.18;;;;;;;3.86;100.00;101909.66;5047995;28;20024;-71
2023/01/31 01:32:26;;;;;;;18.27;7.28;;;;;;;3.85;100.00;101913.47;5096738;28;20059;-71
2023/01/31 01:34:52;;;;;;;18.63;7.18;;;;;;;3.84;100.00;101908.19;5077060;28;20288;-71
2023/01/31 01:37:20;;;;;;;17.27;7.80;;;;;;;3.83;100.00;101909.25;5064693;28;20036;-71
2023/01/31 01:39:46;;;;;;;13.48;6.32;;;;;;;3.83;100.00;101904.59;5059757;28;20044;-71
2023/01/31 01:42:16;;;;;;;19.63;7.28;;;;;;;3.85;100.00;101918.97;5055164;28;20113;-71
2023/01/31 01:44:48;;;;;;;19.45;6.90;;;;;;;3.85;100.00;101912.63;5076498;28;20086;-71
2023/01/31 01:47:45;;;;;;;17.45;6.38;;;;;;;3.85;100.00;101910.72;5094607;28;20508;-71
2023/01/31 01:50:30;;;;;;;16.08;6.60;;;;;;;3.83;100.00;101920.25;5083758;28;20024;-71
2023/01/31 01:53:05;;;;;;;16.17;6.60;;;;;;;3.86;100.00;101911.56;5059652;28;20028;-71
2023/01/31 01:55:36;;;;;;;15.23;6.55;;;;;;;3.85;100.00;101918.13;5076396;28;20103;-71
2023/01/31 01:58:16;;;;;;;17.35;7.00;;;;;;;3.84;100.00;101916.44;5060255;28;20559;-71
2023/01/31 02:00:41;;;;;;;16.00;6.10;;;;;;;3.86;100.00;101911.56;5077855;28;20048;-71
2023/01/31 02:03:07;;;;;;;15.48;5.70;;;;;;;3.85;100.00;101905.22;5077345;28;20385;-71
2023/01/31 02:05:39;;;;;;;13.45;5.55;;;;;;;3.87;100.00;101905.00;5071936;28;20107;-71
2023/01/31 02:08:04;;;;;;;15.50;5.63;;;;;;;3.88;100.00;101914.94;5057932;28;20020;-71
2023/01/31 02:10:37;;;;;;;16.73;5.68;;;;;;;3.89;100.00;101908.38;5076441;28;20024;-71
2023/01/31 02:13:02;;;;;;;15.52;5.68;;;;;;;3.89;100.00;101908.38;5077269;28;20032;-71
2023/01/31 02:15:28;;;;;;;18.08;6.00;;;;;;;3.87;100.00;101911.34;5043048;28;20036;-71
2023/01/31 02:17:53;;;;;;;14.23;5.60;;;;;;;3.88;100.00;101912.19;5061552;28;20432;-71
2023/01/31 02:20:32;;;;;;;18.73;5.75;;;;;;;3.87;100.00;101911.34;5079524;28;20024;-71
2023/01/31 02:23:31;;;;;;;14.00;5.20;;;;;;;3.88;100.00;101910.28;5080406;28;20138;-71
2023/01/31 02:26:03;;;;;;;14.55;5.07;;;;;;;3.88;100.00;101914.94;5075953;28;20101;-71
2023/01/31 02:28:47;;;;;;;17.13;5.70;;;;;;;3.88;100.00;101918.53;5075804;28;20113;-71
2023/01/31 02:31:29;;;;;;;10.57;4.63;;;;;;;3.89;100.00;101914.72;5081803;28;20112;-71
2023/01/31 02:34:06;;;;;;;12.48;5.43;;;;;;;3.90;100.00;101918.31;5068954;28;20020;-71
2023/01/31 02:36:41;;;;;;;14.25;5.03;;;;;;;3.90;100.00;101921.91;5072660;28;20035;-71
2023/01/31 02:39:51;;;;;;;10.88;4.85;;;;;;;3.91;100.00;101920.00;5063435;28;20044;-71
2023/01/31 02:42:27;;;;;;;14.10;5.28;;;;;;;3.90;100.00;101923.81;5033346;28;20100;-71
2023/01/31 02:45:28;;;;;;;9.63;4.65;;;;;;;3.90;100.00;101932.03;5059979;28;20040;-71
2023/01/31 02:48:03;;;;;;;10.68;4.63;;;;;;;3.90;100.00;101934.78;5057240;28;20036;-71
2023/01/31 02:50:39;;;;;;;17.98;4.85;;;;;;;3.90;100.00;101937.53;5045623;28;20077;-71
2023/01/31 02:53:08;;;;;;;14.32;4.88;;;;;;;3.90;100.00;101943.03;5060335;28;20027;-71
2023/01/31 02:58:33;;;;;;;11.98;4.63;;;;;;;3.90;100.00;101940.28;5060990;28;20063;-71
2023/01/31 03:00:59;;;;;;;11.18;4.47;;;;;;;3.91;100.00;101945.59;5095428;28;20028;-71
2023/01/31 03:03:30;;;;;;;13.77;5.05;;;;;;;3.90;100.00;101941.16;5061853;28;20039;-71
2023/01/31 03:06:22;;;;;;;12.32;5.20;;;;;;;3.90;100.00;101948.53;5075440;28;20566;-71
2023/01/31 03:09:09;;;;;;;13.20;4.90;;;;;;;3.90;100.00;101948.53;5063018;28;20031;-71
2023/01/31 03:11:58;;;;;;;13.13;5.45;;;;;;;3.89;100.00;101942.19;5037690;28;20040;-71
2023/01/31 03:14:43;;;;;;;18.45;4.68;;;;;;;3.89;100.00;101946.88;5039919;28;20110;-71
2023/01/31 03:17:33;;;;;;;14.38;4.85;;;;;;;3.87;100.00;101937.97;5084495;28;20040;-71
2023/01/31 03:20:20;;;;;;;13.32;4.03;;;;;;;3.89;100.00;101939.47;5077597;28;20032;-71
2023/01/31 03:22:49;;;;;;;12.00;4.43;;;;;;;3.89;100.00;101942.19;5059200;28;20019;-71
2023/01/31 03:25:16;;;;;;;14.70;4.50;;;;;;;3.89;100.00;101935.88;5072381;28;20055;-71
2023/01/31 03:27:43;;;;;;;13.07;4.53;;;;;;;3.90;100.00;101937.53;5071473;28;20621;-71
2023/01/31 03:30:16;;;;;;;11.35;4.15;;;;;;;3.88;100.00;101928.69;5074678;28;20069;-71
2023/01/31 03:32:44;;;;;;;12.43;4.00;;;;;;;3.89;100.00;101925.72;5041890;28;20028;-71
2023/01/31 03:35:09;;;;;;;13.43;4.28;;;;;;;3.89;100.00;101924.88;5074830;28;20040;-71
2023/01/31 03:37:50;;;;;;;17.17;4.35;;;;;;;3.90;100.00;101927.41;5089192;28;20032;-71
2023/01/31 03:40:28;;;;;;;9.27;3.03;;;;;;;3.88;100.00;101924.03;5072681;27;20134;-70
2023/01/31 03:43:07;;;;;;;10.57;3.80;;;;;;;3.90;100.00;101919.19;5075784;28;20115;-70
2023/01/31 03:45:35;;;;;;;8.55;3.60;;;;;;;3.90;100.00;101910.94;5055985;28;20109;-70
2023/01/31 03:48:02;;;;;;;13.50;3.53;;;;;;;3.92;100.00;101917.03;5034506;28;20393;-70
2023/01/31 03:50:37;;;;;;;11.80;4.10;;;;;;;3.90;100.00;101915.56;5053526;28;20025;-70
2023/01/31 03:53:27;;;;;;;11.98;3.15;;;;;;;3.91;100.00;101909.84;5071014;28;20420;-70
2023/01/31 03:55:59;;;;;;;13.27;3.65;;;;;;;3.88;100.00;101913.03;5058815;28;20029;-70
2023/01/31 03:58:29;;;;;;;11.70;3.20;;;;;;;3.90;100.00;101905.44;5037808;28;20564;-70
2023/01/31 04:00:56;;;;;;;10.82;3.50;;;;;;;3.91;100.00;101898.03;5034932;28;20044;-70
2023/01/31 04:03:31;;;;;;;12.18;3.53;;;;;;;3.90;100.00;101897.19;5067127;28;20041;-70
2023/01/31 04:05:56;;;;;;;10.73;3.30;;;;;;;3.90;100.00;101897.19;5051083;28;20061;-70
2023/01/31 04:08:22;;;;;;;9.23;2.70;;;;;;;3.90;100.00;101902.69;5037460;28;20033;-70
2023/01/31 04:10:47;;;;;;;10.27;2.95;;;;;;;3.90;100.00;101897.19;5034645;28;20041;-70
2023/01/31 04:13:12;;;;;;;10.68;3.75;;;;;;;3.90;100.00;101896.31;5050663;28;20036;-70
2023/01/31 04:15:38;;;;;;;12.40;2.92;;;;;;;3.90;100.00;101904.56;5061164;28;20053;-70
2023/01/31 04:18:04;;;;;;;14.68;3.72;;;;;;;3.89;100.00;101908.38;5067282;28;20036;-70
2023/01/31 04:20:29;;;;;;;7.22;2.72;;;;;;;3.88;100.00;101907.53;5070538;28;20029;-70
2023/01/31 04:22:54;;;;;;;12.15;3.38;;;;;;;3.89;100.00;101911.13;5024271;28;20033;-70
2023/01/31 04:25:20;;;;;;;8.93;3.03;;;;;;;3.88;100.00;101909.44;5079993;28;20485;-70
2023/01/31 04:27:45;;;;;;;12.45;3.60;;;;;;;3.89;100.00;101916.63;5057008;28;20029;-70
2023/01/31 04:30:11;;;;;;;10.10;3.05;;;;;;;3.89;100.00;101914.72;5060537;28;20029;-70
2023/01/31 04:32:37;;;;;;;9.35;3.00;;;;;;;3.88;100.00;101915.78;5068480;28;20481;-70
2023/01/31 04:35:03;;;;;;;7.68;2.80;;;;;;;3.86;100.00;101904.16;5082470;28;20036;-70
2023/01/31 04:37:28;;;;;;;7.43;2.72;;;;;;;3.87;100.00;101916.00;5070308;28;21670;-70
2023/01/31 04:39:54;;;;;;;15.00;3.00;;;;;;;3.87;100.00;101916.81;5050555;28;20033;-70
2023/01/31 04:42:19;;;;;;;10.73;2.95;;;;;;;3.87;100.00;101899.50;5066084;28;20040;-70
2023/01/31 04:44:44;;;;;;;16.60;2.63;;;;;;;3.87;100.00;101905.84;5033331;28;20029;-70
2023/01/31 04:47:10;;;;;;;10.32;2.70;;;;;;;3.86;100.00;101901.41;5067164;28;20040;-70
2023/01/31 04:49:35;;;;;;;10.50;3.05;;;;;;;3.87;100.00;101899.50;5102675;28;20078;-70
2023/01/31 04:52:01;;;;;;;11.50;3.58;;;;;;;3.87;100.00;101905.84;5056224;28;20029;-70
2023/01/31 04:54:26;;;;;;;12.70;3.10;;;;;;;3.84;100.00;101898.03;5058044;28;20493;-70
2023/01/31 04:56:52;;;;;;;11.80;3.00;;;;;;;3.83;100.00;101906.50;5023309;28;20683;-70
2023/01/31 04:59:17;;;;;;;8.18;2.60;;;;;;;3.84;100.00;101899.94;5036259;28;20037;-70
2023/01/31 05:01:43;;;;;;;13.70;3.30;;;;;;;3.85;100.00;101905.22;5053386;28;20037;-70
2023/01/31 05:04:08;;;;;;;8.38;2.80;;;;;;;3.85;100.00;101907.13;5063368;28;20029;-70
2023/01/31 05:06:34;;;;;;;10.85;3.35;;;;;;;3.84;100.00;101908.19;5054301;28;20397;-70
2023/01/31 05:09:00;;;;;;;12.23;3.05;;;;;;;3.84;100.00;101900.78;5056564;28;20048;-69
2023/01/31 05:11:29;;;;;;;10.13;2.88;;;;;;;3.84;100.00;101910.94;5056039;28;20603;-73
2023/01/31 05:13:54;;;;;;;10.93;2.85;;;;;;;3.81;100.00;101902.03;5019687;28;20083;-70
2023/01/31 05:16:20;;;;;;;13.13;3.75;;;;;;;3.81;100.00;101904.78;5036277;28;20025;-70
2023/01/31 05:18:45;;;;;;;9.88;3.08;;;;;;;3.83;100.00;101914.75;5047116;28;20386;-70
2023/01/31 05:21:11;;;;;;;12.63;3.22;;;;;;;3.84;100.00;101906.28;5055772;28;20474;-70
2023/01/31 05:23:36;;;;;;;10.98;2.83;;;;;;;3.83;100.00;101909.25;5032158;28;20032;-70
2023/01/31 05:26:02;;;;;;;10.45;2.85;;;;;;;3.82;100.00;101908.41;5063381;28;20039;-70
2023/01/31 05:28:28;;;;;;;8.55;2.67;;;;;;;3.86;100.00;101914.31;5069448;28;20430;-70
2023/01/31 05:30:53;;;;;;;9.35;2.80;;;;;;;3.85;100.00;101909.88;5037858;28;20037;-70
2023/01/31 05:33:19;;;;;;;8.80;2.80;;;;;;;3.83;100.00;101914.75;5063847;28;20083;-70
2023/01/31 05:35:46;;;;;;;9.63;2.60;;;;;;;3.82;100.00;101905.66;5061970;28;20094;-70
2023/01/31 05:38:12;;;;;;;10.05;2.42;;;;;;;3.83;100.00;101910.09;5057173;28;20629;-70
2023/01/31 05:40:37;;;;;;;15.60;2.83;;;;;;;3.81;100.00;101907.53;5055938;28;20119;-70
2023/01/31 05:43:03;;;;;;;6.35;2.30;;;;;;;3.81;100.00;101913.03;5063998;28;20074;-70
2023/01/31 05:45:29;;;;;;;10.00;2.72;;;;;;;3.83;100.00;101903.75;5009504;28;20036;-70
2023/01/31 05:47:55;;;;;;;6.22;2.28;;;;;;;3.80;100.00;101905.88;5019102;28;20029;-70
2023/01/31 05:50:20;;;;;;;6.20;2.40;;;;;;;3.83;100.00;101920.25;5053196;28;20032;-70
2023/01/31 05:52:53;;;;;;;7.43;2.30;;;;;;;3.84;100.00;101916.44;5055705;28;20021;-70
2023/01/31 05:55:19;;;;;;;7.93;2.28;;;;;;;3.82;100.00;101919.41;5042234;28;20103;-70
2023/01/31 05:57:45;;;;;;;11.75;2.80;;;;;;;3.83;100.00;101906.50;5049099;28;20064;-70
2023/01/31 06:00:11;;;;;;;9.82;2.60;;;;;;;3.83;100.00;101923.81;5038334;28;20036;-70
2023/01/31 06:02:37;;;;;;;8.10;2.15;;;;;;;3.83;100.00;101925.75;5055950;28;20068;-70
2023/01/31 06:05:02;;;;;;;12.07;2.70;;;;;;;3.82;100.00;101919.41;5039148;28;20029;-70
2023/01/31 06:07:28;;;;;;;8.75;2.58;;;;;;;3.83;100.00;101926.56;5056817;28;20108;-70
2023/01/31 06:09:53;;;;;;;10.80;2.70;;;;;;;3.81;100.00;101924.03;5055162;28;20021;-71
2023/01/31 06:12:19;;;;;;;11.80;3.03;;;;;;;3.81;100.00;101932.28;5055063;28;20033;-70
2023/01/31 06:14:45;;;;;;;9.85;2.75;;;;;;;3.81;100.00;101921.28;5054691;28;20033;-70
2023/01/31 06:17:11;;;;;;;10.95;2.53;;;;;;;3.81;100.00;101932.28;5019030;28;20094;-70
2023/01/31 06:19:37;;;;;;;7.00;2.30;;;;;;;3.83;100.00;101933.97;5051712;28;20481;-70
2023/01/31 06:22:03;;;;;;;9.40;2.60;;;;;;;3.80;100.00;101927.00;5046523;28;20064;-70
2023/01/31 06:24:29;;;;;;;6.78;2.38;;;;;;;3.79;100.00;101928.91;5066782;28;20033;-70
2023/01/31 06:26:54;;;;;;;7.28;2.47;;;;;;;3.80;100.00;101930.59;5054788;28;20043;-70
2023/01/31 06:29:20;;;;;;;11.07;2.95;;;;;;;3.79;100.00;101934.41;5052912;28;20048;-70
2023/01/31 06:31:45;;;;;;;7.15;2.28;;;;;;;3.79;100.00;101925.34;5026929;28;20032;-70
2023/01/31 06:34:11;;;;;;;9.45;2.70;;;;;;;3.79;100.00;101928.91;5055939;28;20032;-70
2023/01/31 06:36:36;;;;;;;11.18;2.72;;;;;;;3.76;100.00;101931.22;5059043;28;20390;-70
2023/01/31 06:39:03;;;;;;;9.57;2.53;;;;;;;3.79;100.00;101941.81;5050037;28;20047;-70
2023/01/31 06:41:28;;;;;;;8.70;2.33;;;;;;;3.78;100.00;101935.44;5055889;28;20033;-70
2023/01/31 06:43:54;;;;;;;7.85;2.35;;;;;;;3.78;100.00;101931.88;5054293;28;20355;-70
2023/01/31 06:46:19;;;;;;;10.20;2.70;;;;;;;3.75;100.00;101930.38;5018481;28;20549;-70
2023/01/31 06:48:47;;;;;;;10.45;2.50;;;;;;;3.75;100.00;101930.38;5050595;28;20032;-70
2023/01/31 06:51:12;;;;;;;11.07;2.90;;;;;;;3.76;100.00;101932.09;5054654;28;20029;-70
2023/01/31 06:53:38;;;;;;;11.93;2.63;;;;;;;3.74;100.00;101936.13;5053918;28;20044;-70
2023/01/31 06:56:04;;;;;;;9.63;2.30;;;;;;;3.80;100.00;101940.75;5055740;28;20033;-70
2023/01/31 06:58:29;;;;;;;10.00;2.95;;;;;;;3.74;100.00;101950.69;5020836;28;20033;-70
2023/01/31 07:00:54;;;;;;;10.90;3.17;;;;;;;3.75;100.00;101948.78;5053919;28;20035;-70
2023/01/31 07:03:20;;;;;;;9.02;2.30;;;;;;;3.74;100.00;101941.63;5020481;28;20086;-70
2023/01/31 07:05:47;;;;;;;11.82;2.70;;;;;;;3.77;100.00;101947.53;5045183;28;20033;-70
2023/01/31 07:08:13;;;;;;;7.80;2.33;;;;;;;3.75;100.00;101944.13;5021403;28;20044;-70
2023/01/31 07:10:38;;;;;;;13.10;2.65;;;;;;;3.73;100.00;101943.53;5055463;28;20029;-70
2023/01/31 07:13:04;;;;;;;7.63;2.25;;;;;;;3.74;100.00;101945.19;5053693;28;20029;-71
2023/01/31 07:15:29;;;;;;;8.90;2.80;;;;;;;3.73;100.00;101948.16;5037416;28;20044;-71
2023/01/31 07:17:58;;;;;;;7.13;2.33;;;;;;;3.77;100.00;101952.19;5037234;28;20397;-72
2023/01/31 07:20:24;;;;;;;8.77;2.70;;;;;;;3.74;100.00;101947.94;5020997;28;20024;-72
2023/01/31 07:22:54;;;;;;;8.02;2.38;;;;;;;3.76;100.00;101956.84;5040424;28;20035;-72
2023/01/31 07:25:20;;;;;;;11.02;3.20;;;;;;;3.75;100.00;101959.78;5046498;28;20478;-71
2023/01/31 07:27:45;;;;;;;9.45;2.80;;;;;;;3.73;100.00;101954.50;5034664;28;20040;-71
2023/01/31 07:30:12;;;;;;;7.97;2.80;;;;;;;3.73;100.00;101949.03;5045651;28;20025;-71
2023/01/31 07:32:38;;;;;;;6.30;2.67;;;;;;;3.73;100.00;101949.03;5053427;28;20393;-71
2023/01/31 07:35:04;;;;;;;9.00;2.40;;;;;;;3.75;100.00;101954.28;5001564;28;20097;-71
2023/01/31 07:37:29;;;;;;;11.55;2.80;;;;;;;3.76;100.00;101958.72;5100516;28;20440;-71
2023/01/31 07:39:55;;;;;;;6.45;2.42;;;;;;;3.77;100.00;101961.25;5053587;28;20056;-71
2023/01/31 07:42:20;;;;;;;12.00;3.00;;;;;;;3.75;100.00;101963.38;5054800;28;20028;-71
2023/01/31 07:44:46;;;;;;;8.10;2.67;;;;;;;3.76;100.00;101964.22;5053605;28;20029;-71
2023/01/31 07:47:11;;;;;;;8.93;3.28;;;;;;;3.75;100.00;101963.38;5054999;28;20040;-71
2023/01/31 07:49:37;;;;;;;6.30;2.78;;;;;;;3.74;100.00;101963.59;5054878;28;20029;-71
2023/01/31 07:52:02;;;;;;;11.27;2.97;;;;;;;3.72;100.00;101962.97;5054609;28;20025;-71
2023/01/31 07:54:28;;;;;;;10.57;2.78;;;;;;;3.71;100.00;101970.34;5053667;28;20060;-71
2023/01/31 07:56:53;;;;;;;13.98;3.50;;;;;;;3.72;100.00;101958.31;5037161;28;20449;-71
2023/01/31 07:59:19;;;;;;;12.38;3.17;;;;;;;3.75;100.00;101962.53;5033399;28;20030;-71
2023/01/31 08:04:28;;;;;;;9.85;2.80;;;;;;;3.74;100.00;101960.84;5072324;28;20032;-71
2023/01/31 08:06:54;;;;;;;11.10;3.33;;;;;;;3.75;100.00;101968.88;5050310;28;20104;-71
2023/01/31 08:09:19;;;;;;;10.60;3.35;;;;;;;3.77;100.00;101955.75;5029047;28;20064;-71
2023/01/31 08:11:45;;;;;;;10.40;3.08;;;;;;;3.79;100.00;101963.81;5053111;28;20036;-71
2023/01/31 08:14:10;;;;;;;8.65;3.10;;;;;;;3.80;100.00;101955.34;5033493;28;20032;-72
2023/01/31 08:16:36;;;;;;;12.45;3.20;;;;;;;3.81;100.00;101958.91;5063489;28;20029;-71
2023/01/31 08:19:02;;;;;;;11.07;3.28;;;;;;;3.81;100.00;101962.50;5061792;28;20051;-71
2023/01/31 08:21:27;;;;;;;10.90;3.00;;;;;;;3.84;100.00;101946.66;5049654;28;20494;-71
2023/01/31 08:23:53;;;;;;;12.25;3.03;;;;;;;3.86;100.00;101952.78;5043900;28;20083;-71
2023/01/31 08:26:19;;;;;;;4.45;2.55;;;;;;;3.86;100.00;101964.63;5059485;28;20463;-72
2023/01/31 08:28:45;;;;;;;10.63;3.30;;;;;;;3.85;100.00;101951.94;5046059;28;20076;-71
2023/01/31 08:31:21;;;;;;;8.55;2.90;;;;;;;3.89;100.00;101957.84;5037088;28;20029;-72
2023/01/31 08:33:50;;;;;;;7.40;2.78;;;;;;;3.91;100.00;101955.75;5049454;28;20060;-72
2023/01/31 08:36:17;;;;;;;9.40;3.10;;;;;;;3.95;100.00;101962.50;5056760;28;20076;-71
2023/01/31 08:38:43;;;;;;;7.38;3.05;;;;;;;3.97;100.00;101949.38;5057978;28;20044;-71
2023/01/31 08:41:12;;;;;;;10.77;3.28;;;;;;;3.95;100.00;101955.09;5040328;28;20032;-71
2023/01/31 08:43:37;;;;;;;11.32;2.83;;;;;;;3.99;100.00;101953.59;5056496;28;20079;-71
2023/01/31 08:46:04;;;;;;;8.82;3.60;;;;;;;4.02;100.00;101955.94;5038024;28;20029;-71
2023/01/31 08:48:33;;;;;;;12.70;3.30;;;;;;;4.06;100.00;101959.06;5024128;28;20029;-71
2023/01/31 08:51:06;;;;;;;9.43;2.90;;;;;;;4.09;100.00;101974.31;5036717;28;20034;-71
2023/01/31 08:53:32;;;;;;;11.80;3.22;;;;;;;4.12;100.00;101977.47;5039749;28;20021;-71
2023/01/31 08:56:02;;;;;;;9.93;3.10;;;;;;;4.15;100.00;101985.31;5056842;28;20067;-71
2023/01/31 08:58:33;;;;;;;12.45;3.38;;;;;;;4.19;100.00;101980.22;5039833;28;20115;-72
2023/01/31 09:01:04;;;;;;;8.57;2.83;;;;;;;4.22;100.00;101986.13;5056789;28;20473;-72
2023/01/31 09:03:29;;;;;;;9.25;2.88;;;;;;;4.23;100.00;101987.81;5044753;28;20025;-71
2023/01/31 09:06:00;;;;;;;10.40;3.10;;;;;;;4.28;100.00;101989.06;5072567;28;20043;-71
2023/01/31 09:08:25;;;;;;;9.07;2.83;;;;;;;4.32;100.00;101993.06;5057282;28;20494;-72
2023/01/31 09:10:52;;;;;;;12.27;3.03;;;;;;;4.34;100.00;101989.03;5057730;28;20040;-72
2023/01/31 09:13:17;;;;;;;9.80;2.63;;;;;;;4.38;100.00;101997.72;5055457;28;20037;-72
2023/01/31 09:15:43;;;;;;;12.95;3.40;;;;;;;4.40;100.00;102004.69;5055891;28;20033;-72
2023/01/31 09:18:08;;;;;;;10.23;2.75;;;;;;;4.47;100.00;102004.66;5055961;28;20021;-72
2023/01/31 09:20:34;;;;;;;7.28;2.63;;;;;;;4.48;100.00;102007.22;5057764;28;20420;-72
2023/01/31 09:22:59;;;;;;;12.30;3.40;;;;;;;4.52;100.00;102002.09;5046997;28;20036;-72
2023/01/31 09:25:25;;;;;;;12.20;3.03;;;;;;;4.55;100.00;102009.94;5056187;28;20037;-71
2023/01/31 09:27:54;;;;;;;9.65;3.38;;;;;;;4.59;100.00;102004.81;5055694;28;20529;-72
2023/01/31 09:30:20;;;;;;;14.20;3.13;;;;;;;4.61;100.00;102006.28;5036060;28;20053;-72
2023/01/31 09:32:46;;;;;;;10.52;2.90;;;;;;;4.64;100.00;102003.09;5053320;28;20035;-72
2023/01/31 09:35:12;;;;;;;10.30;3.03;;;;;;;4.67;100.00;102018.34;5055793;28;20032;-71
2023/01/31 09:37:38;;;;;;;11.43;2.92;;;;;;;4.72;100.00;102012.19;5022623;28;20076;-71
2023/01/31 09:40:04;;;;;;;12.32;3.50;;;;;;;4.75;100.00;102012.59;5019500;28;20123;-72
2023/01/31 09:42:34;;;;;;;8.80;3.20;;;;;;;4.79;100.00;102021.25;5053399;28;20509;-71
2023/01/31 09:45:11;;;;;;;13.85;3.67;;;;;;;4.83;100.00;102019.75;5035684;28;20057;-71
2023/01/31 09:47:45;;;;;;;10.07;3.03;;;;;;;4.92;100.00;102029.44;5040141;28;20039;-71
2023/01/31 09:50:19;;;;;;;12.70;3.92;;;;;;;4.98;100.00;102034.06;5055581;28;20017;-72
2023/01/31 09:52:44;;;;;;;8.93;3.40;;;;;;;5.03;100.00;102027.91;5038956;28;20092;-71
2023/01/31 09:55:24;;;;;;;16.55;4.05;;;;;;;5.11;100.00;102031.25;5039125;28;20428;-72
2023/01/31 09:57:58;;;;;;;11.35;2.67;;;;;;;5.20;100.00;102039.25;5019175;28;20565;-72
2023/01/31 10:00:45;;;;;;;16.60;3.53;;;;;;;5.30;100.00;102034.13;5021046;28;20037;-71
2023/01/31 10:03:32;;;;;;;19.63;3.67;;;;;;;5.43;100.00;102030.41;5051696;28;20059;-72
2023/01/31 10:06:11;;;;;;;14.65;4.13;;;;;;;5.54;100.00;102030.56;5048240;28;20029;-72
2023/01/31 10:09:02;;;;;;;14.40;3.53;;;;;;;5.66;100.00;102029.84;5055241;28;20025;-75
2023/01/31 10:11:46;;;;;;;14.32;3.45;;;;;;;5.78;100.00;102030.78;5054119;28;20032;-72
2023/01/31 10:14:32;;;;;;;20.40;4.82;;;;;;;5.89;100.00;102040.25;5028202;28;20041;-72
2023/01/31 10:17:17;;;;;;;16.60;4.18;;;;;;;5.99;100.00;102033.19;5027282;28;20094;-72
2023/01/31 10:19:52;;;;;;;11.85;4.30;;;;;;;6.10;100.00;102033.50;5050719;28;20037;-71
2023/01/31 10:22:22;;;;;;;12.10;3.85;;;;;;;6.19;100.00;102040.44;5038112;28;20112;-72
2023/01/31 10:24:58;;;;;;;13.80;3.88;;;;;;;6.29;100.00;102046.25;5038573;28;20499;-72
2023/01/31 10:27:41;;;;;;;14.00;4.05;;;;;;;6.39;100.00;102046.56;5035134;28;20026;-72
2023/01/31 10:30:13;;;;;;;21.05;4.45;;;;;;;6.48;100.00;102045.19;5037655;28;20024;-72
2023/01/31 10:32:44;;;;;;;13.75;4.22;;;;;;;6.58;100.00;102038.31;5018139;28;20064;-72
2023/01/31 10:35:17;;;;;;;14.90;4.47;;;;;;;6.67;100.00;102039.69;5038290;28;20039;-72
2023/01/31 10:37:45;;;;;;;16.75;4.50;;;;;;;6.78;100.00;102044.41;5021337;28;20064;-72
2023/01/31 10:40:19;;;;;;;19.55;4.28;;;;;;;6.87;100.00;102037.50;5018483;28;20041;-72
2023/01/31 10:42:48;;;;;;;16.77;4.45;;;;;;;6.98;100.00;102046.09;5081341;28;20022;-72
2023/01/31 10:45:18;;;;;;;14.70;4.53;;;;;;;7.08;100.00;102054.69;5048023;28;20028;-72
2023/01/31 10:47:52;;;;;;;22.13;4.28;;;;;;;7.19;100.00;102053.00;5037465;28;20033;-72
2023/01/31 10:50:27;;;;;;;21.60;4.28;;;;;;;7.28;100.00;102040.56;5033104;28;20040;-72
2023/01/31 10:52:59;;;;;;;16.42;3.67;;;;;;;7.41;100.00;102053.34;5039024;28;20029;-72
2023/01/31 10:55:55;;;;;;;18.52;4.25;;;;;;;7.53;100.00;102043.19;5055600;28;20033;-72
2023/01/31 10:58:21;;;;;;;18.25;4.50;;;;;;;7.63;100.00;102046.19;5037471;28;20048;-71
2023/01/31 11:00:46;;;;;;;13.40;3.67;;;;;;;7.74;100.00;102048.13;5046148;28;20033;-72
2023/01/31 11:03:12;;;;;;;16.15;4.07;;;;;;;7.84;100.00;102053.94;5032617;28;20031;-72
2023/01/31 11:05:49;;;;;;;19.25;4.18;;;;;;;7.96;100.00;102053.09;5028967;28;20533;-72
2023/01/31 11:08:23;;;;;;;18.83;4.22;;;;;;;8.08;100.00;102053.97;5041954;28;20032;-72
2023/01/31 11:10:50;;;;;;;14.52;3.33;;;;;;;8.19;100.00;102061.44;5054408;28;20025;-72
2023/01/31 11:13:17;;;;;;;20.38;4.57;;;;;;;8.28;100.00;102048.91;5004493;28;20039;-72
2023/01/31 11:15:42;;;;;;;19.58;3.72;;;;;;;8.40;100.00;102043.41;5021029;28;20035;-72
2023/01/31 11:18:16;;;;;;;16.05;4.00;;;;;;;8.50;100.00;102045.56;5055149;28;20029;-72
2023/01/31 11:20:45;;;;;;;25.95;4.20;;;;;;;8.59;100.00;102032.19;5037510;28;20389;-74
2023/01/31 11:23:12;;;;;;;15.50;3.63;;;;;;;8.69;100.00;102040.69;5034075;28;20033;-72
2023/01/31 11:25:38;;;;;;;18.38;3.60;;;;;;;8.79;100.00;102031.78;5017361;28;20038;-71
2023/01/31 11:28:15;;;;;;;18.70;3.40;;;;;;;8.88;100.00;102035.84;5022868;28;20582;-72
2023/01/31 11:30:41;;;;;;;16.98;3.80;;;;;;;8.99;100.00;102034.94;5032284;28;20063;-71
2023/01/31 11:33:06;;;;;;;19.58;3.78;;;;;;;9.07;100.00;102026.25;5011035;28;20022;-72
2023/01/31 11:35:33;;;;;;;22.83;3.45;;;;;;;9.17;100.00;102023.69;5020680;28;20021;-72